sensor_id;sensor_type;location;lat;lon;timestamp;temperature;humidity
63976;DHT22;50167;47.958;21.780;2023-03-01T00:01:05;5.54;53.81
63976;DHT22;50167;47.958;21.780;2023-03-01T00:03:32;5.11;54.47
63976;DHT22;50167;47.958;21.780;2023-03-01T00:05:58;5.62;53.82
63976;DHT22;50167;47.958;21.780;2023-03-01T00:08:25;5.26;53.50
63976;DHT22;50167;47.958;21.780;2023-03-01T00:11:10;5.52;55.29
63976;DHT22;50167;47.958;21.780;2023-03-01T00:13:38;5.29;53.80
63976;DHT22;50167;47.958;21.780;2023-03-01T00:16:07;5.31;54.56
63976;DHT22;50167;47.958;21.780;2023-03-01T00:18:34;5.47;53.43
63976;DHT22;50167;47.958;21.780;2023-03-01T00:21:01;5.15;54.46
63976;DHT22;50167;47.958;21.780;2023-03-01T00:23:27;5.56;54.12
63976;DHT22;50167;47.958;21.780;2023-03-01T00:25:54;5.07;54.55
63976;DHT22;50167;47.958;21.780;2023-03-01T00:28:21;5.43;53.47
63976;DHT22;50167;47.958;21.780;2023-03-01T00:30:47;5.10;54.26
63976;DHT22;50167;47.958;21.780;2023-03-01T00:33:14;5.58;53.16
63976;DHT22;50167;47.958;21.780;2023-03-01T00:35:40;5.10;53.96
63976;DHT22;50167;47.958;21.780;2023-03-01T00:38:06;5.52;53.40
63976;DHT22;50167;47.958;21.780;2023-03-01T00:40:34;5.10;53.82
63976;DHT22;50167;47.958;21.780;2023-03-01T00:43:03;5.59;53.79
63976;DHT22;50167;47.958;21.780;2023-03-01T00:45:29;5.11;53.52
63976;DHT22;50167;47.958;21.780;2023-03-01T00:47:57;5.45;55.10
63976;DHT22;50167;47.958;21.780;2023-03-01T00:50:24;5.42;52.90
63976;DHT22;50167;47.958;21.780;2023-03-01T00:52:55;5.07;54.40
63976;DHT22;50167;47.958;21.780;2023-03-01T00:55:23;5.54;53.32
63976;DHT22;50167;47.958;21.780;2023-03-01T00:57:49;5.11;53.61
63976;DHT22;50167;47.958;21.780;2023-03-01T01:00:17;5.41;53.26
63976;DHT22;50167;47.958;21.780;2023-03-01T01:02:43;5.24;54.09
63976;DHT22;50167;47.958;21.780;2023-03-01T01:05:10;5.56;53.10
63976;DHT22;50167;47.958;21.780;2023-03-01T01:07:36;5.15;53.38
63976;DHT22;50167;47.958;21.780;2023-03-01T01:10:03;5.56;53.90
63976;DHT22;50167;47.958;21.780;2023-03-01T01:12:30;5.16;53.36
63976;DHT22;50167;47.958;21.780;2023-03-01T01:14:57;5.46;54.25
63976;DHT22;50167;47.958;21.780;2023-03-01T01:17:23;5.12;53.50
63976;DHT22;50167;47.958;21.780;2023-03-01T01:19:49;5.62;54.44
63976;DHT22;50167;47.958;21.780;2023-03-01T01:22:15;5.19;53.18
63976;DHT22;50167;47.958;21.780;2023-03-01T01:24:42;5.52;54.16
63976;DHT22;50167;47.958;21.780;2023-03-01T01:27:08;5.24;53.06
63976;DHT22;50167;47.958;21.780;2023-03-01T01:29:34;5.47;53.58
63976;DHT22;50167;47.958;21.780;2023-03-01T01:32:00;5.42;52.71
63976;DHT22;50167;47.958;21.780;2023-03-01T01:34:27;5.12;54.07
63976;DHT22;50167;47.958;21.780;2023-03-01T01:36:53;5.50;52.96
63976;DHT22;50167;47.958;21.780;2023-03-01T01:39:21;5.10;53.73
63976;DHT22;50167;47.958;21.780;2023-03-01T01:41:48;5.59;53.90
63976;DHT22;50167;47.958;21.780;2023-03-01T01:44:25;5.14;53.22
63976;DHT22;50167;47.958;21.780;2023-03-01T01:47:05;5.49;53.13
63976;DHT22;50167;47.958;21.780;2023-03-01T01:52:27;5.49;53.03
63976;DHT22;50167;47.958;21.780;2023-03-01T01:55:03;5.12;53.83
63976;DHT22;50167;47.958;21.780;2023-03-01T01:57:40;5.52;52.83
63976;DHT22;50167;47.958;21.780;2023-03-01T02:00:15;5.08;53.59
63976;DHT22;50167;47.958;21.780;2023-03-01T02:02:43;5.50;52.97
63976;DHT22;50167;47.958;21.780;2023-03-01T02:08:15;5.42;52.57
63976;DHT22;50167;47.958;21.780;2023-03-01T02:10:43;5.08;53.72
63976;DHT22;50167;47.958;21.780;2023-03-01T02:13:12;5.49;53.31
63976;DHT22;50167;47.958;21.780;2023-03-01T02:15:41;5.08;53.37
63976;DHT22;50167;47.958;21.780;2023-03-01T02:18:10;5.52;54.51
63976;DHT22;50167;47.958;21.780;2023-03-01T02:23:15;5.59;54.11
63976;DHT22;50167;47.958;21.780;2023-03-01T02:28:33;5.59;54.43
63976;DHT22;50167;47.958;21.780;2023-03-01T02:31:01;5.19;52.26
63976;DHT22;50167;47.958;21.780;2023-03-01T02:33:47;5.63;54.69
63976;DHT22;50167;47.958;21.780;2023-03-01T02:36:36;5.26;52.11
63976;DHT22;50167;47.958;21.780;2023-03-01T02:39:07;5.53;55.58
63976;DHT22;50167;47.958;21.780;2023-03-01T02:41:39;5.32;52.33
63976;DHT22;50167;47.958;21.780;2023-03-01T02:44:05;5.19;54.04
63976;DHT22;50167;47.958;21.780;2023-03-01T02:46:41;5.45;52.92
63976;DHT22;50167;47.958;21.780;2023-03-01T02:49:15;5.12;53.22
63976;DHT22;50167;47.958;21.780;2023-03-01T02:54:44;5.14;53.70
63976;DHT22;50167;47.958;21.780;2023-03-01T02:57:01;5.43;52.75
63976;DHT22;50167;47.958;21.780;2023-03-01T02:59:32;5.03;53.42
63976;DHT22;50167;47.958;21.780;2023-03-01T03:02:01;5.49;53.54
63976;DHT22;50167;47.958;21.780;2023-03-01T03:04:27;5.10;53.08
63976;DHT22;50167;47.958;21.780;2023-03-01T03:06:53;5.54;54.46
63976;DHT22;50167;47.958;21.780;2023-03-01T03:09:20;5.24;52.01
63976;DHT22;50167;47.958;21.780;2023-03-01T03:11:47;5.43;53.34
63976;DHT22;50167;47.958;21.780;2023-03-01T03:14:16;5.29;52.34
63976;DHT22;50167;47.958;21.780;2023-03-01T03:16:46;5.12;53.58
63976;DHT22;50167;47.958;21.780;2023-03-01T03:19:14;5.38;52.32
63976;DHT22;50167;47.958;21.780;2023-03-01T03:21:40;5.24;53.59
63976;DHT22;50167;47.958;21.780;2023-03-01T03:24:07;5.36;52.19
63976;DHT22;50167;47.958;21.780;2023-03-01T03:29:14;5.36;52.21
63976;DHT22;50167;47.958;21.780;2023-03-01T03:31:40;5.18;53.48
63976;DHT22;50167;47.958;21.780;2023-03-01T03:34:07;5.42;51.99
63976;DHT22;50167;47.958;21.780;2023-03-01T03:36:33;5.18;53.00
63976;DHT22;50167;47.958;21.780;2023-03-01T03:38:59;5.52;51.96
63976;DHT22;50167;47.958;21.780;2023-03-01T03:41:25;5.03;53.36
63976;DHT22;50167;47.958;21.780;2023-03-01T03:43:51;5.65;52.37
63976;DHT22;50167;47.958;21.780;2023-03-01T03:46:19;5.11;52.38
63976;DHT22;50167;47.958;21.780;2023-03-01T03:48:47;5.63;54.34
63976;DHT22;50167;47.958;21.780;2023-03-01T03:51:17;5.14;52.64
63976;DHT22;50167;47.958;21.780;2023-03-01T03:53:44;5.59;53.74
63976;DHT22;50167;47.958;21.780;2023-03-01T03:56:11;5.29;51.65
63976;DHT22;50167;47.958;21.780;2023-03-01T03:58:38;5.39;53.93
63976;DHT22;50167;47.958;21.780;2023-03-01T04:01:04;5.60;51.79
63976;DHT22;50167;47.958;21.780;2023-03-01T04:03:31;5.10;52.81
63976;DHT22;50167;47.958;21.780;2023-03-01T04:06:00;5.53;52.32
63976;DHT22;50167;47.958;21.780;2023-03-01T04:08:27;5.11;51.67
63976;DHT22;50167;47.958;21.780;2023-03-01T04:11:02;5.50;52.79
63976;DHT22;50167;47.958;21.780;2023-03-01T04:13:30;5.12;51.76
63976;DHT22;50167;47.958;21.780;2023-03-01T04:15:57;5.54;53.41
63976;DHT22;50167;47.958;21.780;2023-03-01T04:18:24;5.07;53.28
63976;DHT22;50167;47.958;21.780;2023-03-01T04:20:52;5.67;53.03
63976;DHT22;50167;47.958;21.780;2023-03-01T04:23:21;5.25;52.61
63976;DHT22;50167;47.958;21.780;2023-03-01T04:25:57;5.54;55.29
63976;DHT22;50167;47.958;21.780;2023-03-01T04:28:30;5.32;52.51
63976;DHT22;50167;47.958;21.780;2023-03-01T04:30:58;5.32;53.68
63976;DHT22;50167;47.958;21.780;2023-03-01T04:33:26;5.45;52.23
63976;DHT22;50167;47.958;21.780;2023-03-01T04:35:52;5.14;53.58
63976;DHT22;50167;47.958;21.780;2023-03-01T04:38:19;5.50;52.52
63976;DHT22;50167;47.958;21.780;2023-03-01T04:40:46;4.97;53.84
63976;DHT22;50167;47.958;21.780;2023-03-01T04:43:13;5.53;53.00
63976;DHT22;50167;47.958;21.780;2023-03-01T04:45:43;5.12;52.65
63976;DHT22;50167;47.958;21.780;2023-03-01T04:48:09;5.39;53.08
63976;DHT22;50167;47.958;21.780;2023-03-01T04:50:36;5.28;52.11
63976;DHT22;50167;47.958;21.780;2023-03-01T04:53:02;5.16;53.66
63976;DHT22;50167;47.958;21.780;2023-03-01T04:55:29;5.47;52.29
63976;DHT22;50167;47.958;21.780;2023-03-01T04:57:55;5.07;53.50
63976;DHT22;50167;47.958;21.780;2023-03-01T05:00:22;5.59;52.40
63976;DHT22;50167;47.958;21.780;2023-03-01T05:02:51;5.03;52.94
63976;DHT22;50167;47.958;21.780;2023-03-01T05:05:36;5.50;52.85
63976;DHT22;50167;47.958;21.780;2023-03-01T05:08:03;5.12;52.69
63976;DHT22;50167;47.958;21.780;2023-03-01T05:10:31;5.49;52.95
63976;DHT22;50167;47.958;21.780;2023-03-01T05:12:58;5.11;52.80
63976;DHT22;50167;47.958;21.780;2023-03-01T05:15:26;5.46;53.25
63976;DHT22;50167;47.958;21.780;2023-03-01T05:17:56;5.24;52.19
63976;DHT22;50167;47.958;21.780;2023-03-01T05:20:25;5.38;55.05
63976;DHT22;50167;47.958;21.780;2023-03-01T05:22:58;5.46;51.90
63976;DHT22;50167;47.958;21.780;2023-03-01T05:25:25;5.22;53.12
63976;DHT22;50167;47.958;21.780;2023-03-01T05:27:52;5.41;52.39
63976;DHT22;50167;47.958;21.780;2023-03-01T05:30:18;5.28;54.43
63976;DHT22;50167;47.958;21.780;2023-03-01T05:32:48;5.50;52.09
63976;DHT22;50167;47.958;21.780;2023-03-01T05:35:17;5.07;53.53
63976;DHT22;50167;47.958;21.780;2023-03-01T05:37:46;5.52;52.28
63976;DHT22;50167;47.958;21.780;2023-03-01T05:40:19;5.04;53.39
63976;DHT22;50167;47.958;21.780;2023-03-01T05:45:17;5.14;52.69
63976;DHT22;50167;47.958;21.780;2023-03-01T05:47:46;5.59;54.11
63976;DHT22;50167;47.958;21.780;2023-03-01T05:50:19;5.25;52.31
63976;DHT22;50167;47.958;21.780;2023-03-01T05:52:54;5.35;53.53
63976;DHT22;50167;47.958;21.780;2023-03-01T05:55:21;5.49;52.07
63976;DHT22;50167;47.958;21.780;2023-03-01T05:57:48;5.10;53.33
63976;DHT22;50167;47.958;21.780;2023-03-01T06:00:18;5.53;52.97
63976;DHT22;50167;47.958;21.780;2023-03-01T06:02:45;5.12;54.56
63976;DHT22;50167;47.958;21.780;2023-03-01T06:05:14;5.65;54.07
63976;DHT22;50167;47.958;21.780;2023-03-01T06:07:41;5.21;52.29
63976;DHT22;50167;47.958;21.780;2023-03-01T06:10:09;5.53;54.24
63976;DHT22;50167;47.958;21.780;2023-03-01T06:12:38;5.25;54.30
63976;DHT22;50167;47.958;21.780;2023-03-01T06:15:06;5.54;55.70
63976;DHT22;50167;47.958;21.780;2023-03-01T06:17:34;5.46;53.02
63976;DHT22;50167;47.958;21.780;2023-03-01T06:20:09;5.22;54.83
63976;DHT22;50167;47.958;21.780;2023-03-01T06:22:35;5.62;52.96
63976;DHT22;50167;47.958;21.780;2023-03-01T06:25:02;5.11;54.08
63976;DHT22;50167;47.958;21.780;2023-03-01T06:27:29;5.50;53.06
63976;DHT22;50167;47.958;21.780;2023-03-01T06:29:55;5.12;53.43
63976;DHT22;50167;47.958;21.780;2023-03-01T06:32:21;5.39;52.83
63976;DHT22;50167;47.958;21.780;2023-03-01T06:34:47;5.10;53.30
63976;DHT22;50167;47.958;21.780;2023-03-01T06:37:13;5.54;53.19
63976;DHT22;50167;47.958;21.780;2023-03-01T06:39:39;5.12;53.09
63976;DHT22;50167;47.958;21.780;2023-03-01T06:42:08;5.49;52.37
63976;DHT22;50167;47.958;21.780;2023-03-01T06:44:36;5.15;52.44
63976;DHT22;50167;47.958;21.780;2023-03-01T06:47:03;5.47;52.51
63976;DHT22;50167;47.958;21.780;2023-03-01T06:49:29;5.14;52.84
63976;DHT22;50167;47.958;21.780;2023-03-01T06:51:56;5.65;53.55
63976;DHT22;50167;47.958;21.780;2023-03-01T06:54:23;5.32;53.01
63976;DHT22;50167;47.958;21.780;2023-03-01T06:56:50;5.46;53.69
63976;DHT22;50167;47.958;21.780;2023-03-01T06:59:17;5.49;52.34
63976;DHT22;50167;47.958;21.780;2023-03-01T07:01:43;5.15;53.41
63976;DHT22;50167;47.958;21.780;2023-03-01T07:04:11;5.60;52.00
63976;DHT22;50167;47.958;21.780;2023-03-01T07:06:38;5.15;53.02
63976;DHT22;50167;47.958;21.780;2023-03-01T07:09:05;5.66;52.91
63976;DHT22;50167;47.958;21.780;2023-03-01T07:11:31;5.35;52.07
63976;DHT22;50167;47.958;21.780;2023-03-01T07:13:57;5.49;53.30
63976;DHT22;50167;47.958;21.780;2023-03-01T07:16:24;5.60;51.67
63976;DHT22;50167;47.958;21.780;2023-03-01T07:18:50;5.22;51.78
63976;DHT22;50167;47.958;21.780;2023-03-01T07:21:16;5.53;52.52
63976;DHT22;50167;47.958;21.780;2023-03-01T07:23:42;5.22;53.06
63976;DHT22;50167;47.958;21.780;2023-03-01T07:26:08;5.58;53.28
63976;DHT22;50167;47.958;21.780;2023-03-01T07:28:35;5.53;51.21
63976;DHT22;50167;47.958;21.780;2023-03-01T07:31:04;5.24;51.36
63976;DHT22;50167;47.958;21.780;2023-03-01T07:33:32;5.54;53.06
63976;DHT22;50167;47.958;21.780;2023-03-01T07:36:00;5.18;53.32
63976;DHT22;50167;47.958;21.780;2023-03-01T07:38:28;5.67;53.11
63976;DHT22;50167;47.958;21.780;2023-03-01T07:41:00;5.53;52.22
63976;DHT22;50167;47.958;21.780;2023-03-01T07:43:28;5.15;53.34
63976;DHT22;50167;47.958;21.780;2023-03-01T07:46:00;5.62;52.31
63976;DHT22;50167;47.958;21.780;2023-03-01T07:48:28;5.22;53.35
63976;DHT22;50167;47.958;21.780;2023-03-01T07:50:54;5.59;52.97
63976;DHT22;50167;47.958;21.780;2023-03-01T07:53:22;5.63;53.15
63976;DHT22;50167;47.958;21.780;2023-03-01T07:55:48;5.46;53.94
63976;DHT22;50167;47.958;21.780;2023-03-01T07:58:14;5.35;54.03
63976;DHT22;50167;47.958;21.780;2023-03-01T08:00:41;5.25;54.40
63976;DHT22;50167;47.958;21.780;2023-03-01T08:03:07;5.52;53.86
63976;DHT22;50167;47.958;21.780;2023-03-01T08:05:33;5.41;54.31
63976;DHT22;50167;47.958;21.780;2023-03-01T08:07:59;5.28;54.46
63976;DHT22;50167;47.958;21.780;2023-03-01T08:10:26;5.33;54.40
63976;DHT22;50167;47.958;21.780;2023-03-01T08:12:52;5.46;54.27
63976;DHT22;50167;47.958;21.780;2023-03-01T08:15:18;5.43;54.28
63976;DHT22;50167;47.958;21.780;2023-03-01T08:17:44;5.36;54.07
63976;DHT22;50167;47.958;21.780;2023-03-01T08:20:11;5.33;54.81
63976;DHT22;50167;47.958;21.780;2023-03-01T08:22:39;5.38;54.99
63976;DHT22;50167;47.958;21.780;2023-03-01T08:25:05;5.42;55.03
63976;DHT22;50167;47.958;21.780;2023-03-01T08:27:32;5.47;54.92
63976;DHT22;50167;47.958;21.780;2023-03-01T08:29:58;5.58;54.94
63976;DHT22;50167;47.958;21.780;2023-03-01T08:32:26;5.67;54.86
63976;DHT22;50167;47.958;21.780;2023-03-01T08:34:53;5.77;54.92
63976;DHT22;50167;47.958;21.780;2023-03-01T08:37:19;5.93;54.69
63976;DHT22;50167;47.958;21.780;2023-03-01T08:39:47;6.01;53.93
63976;DHT22;50167;47.958;21.780;2023-03-01T08:42:13;6.17;53.93
63976;DHT22;50167;47.958;21.780;2023-03-01T08:44:39;6.36;54.08
63976;DHT22;50167;47.958;21.780;2023-03-01T08:47:05;6.55;53.80
63976;DHT22;50167;47.958;21.780;2023-03-01T08:49:31;6.72;53.25
63976;DHT22;50167;47.958;21.780;2023-03-01T08:51:58;6.84;53.06
63976;DHT22;50167;47.958;21.780;2023-03-01T08:54:24;6.94;52.91
63976;DHT22;50167;47.958;21.780;2023-03-01T08:56:50;7.08;53.04
63976;DHT22;50167;47.958;21.780;2023-03-01T08:59:18;7.28;52.41
63976;DHT22;50167;47.958;21.780;2023-03-01T09:01:46;7.35;51.32
63976;DHT22;50167;47.958;21.780;2023-03-01T09:04:14;7.34;51.68
63976;DHT22;50167;47.958;21.780;2023-03-01T09:06:40;7.43;51.61
63976;DHT22;50167;47.958;21.780;2023-03-01T09:09:14;7.45;51.52
63976;DHT22;50167;47.958;21.780;2023-03-01T09:11:42;7.53;51.14
63976;DHT22;50167;47.958;21.780;2023-03-01T09:14:09;7.63;51.53
63976;DHT22;50167;47.958;21.780;2023-03-01T09:16:35;7.77;51.48
63976;DHT22;50167;47.958;21.780;2023-03-01T09:19:03;8.13;50.57
63976;DHT22;50167;47.958;21.780;2023-03-01T09:21:29;8.51;50.01
63976;DHT22;50167;47.958;21.780;2023-03-01T09:23:57;9.10;49.37
63976;DHT22;50167;47.958;21.780;2023-03-01T09:26:24;9.89;48.98
63976;DHT22;50167;47.958;21.780;2023-03-01T09:28:53;10.69;45.37
63976;DHT22;50167;47.958;21.780;2023-03-01T09:31:21;11.32;42.64
63976;DHT22;50167;47.958;21.780;2023-03-01T09:33:50;11.96;41.05
63976;DHT22;50167;47.958;21.780;2023-03-01T09:36:20;12.83;39.38
63976;DHT22;50167;47.958;21.780;2023-03-01T09:38:47;13.85;38.35
63976;DHT22;50167;47.958;21.780;2023-03-01T09:41:38;14.68;37.65
63976;DHT22;50167;47.958;21.780;2023-03-01T09:51:15;16.77;34.70
63976;DHT22;50167;47.958;21.780;2023-03-01T09:53:41;17.27;31.18
63976;DHT22;50167;47.958;21.780;2023-03-01T10:02:05;18.71;31.30
63976;DHT22;50167;47.958;21.780;2023-03-01T10:07:30;19.21;27.46
63976;DHT22;50167;47.958;21.780;2023-03-01T10:09:55;19.25;29.92
63976;DHT22;50167;47.958;21.780;2023-03-01T10:12:29;19.31;27.56
63976;DHT22;50167;47.958;21.780;2023-03-01T10:15:10;19.48;27.11
63976;DHT22;50167;47.958;21.780;2023-03-01T10:20:24;20.48;25.95
63976;DHT22;50167;47.958;21.780;2023-03-01T10:22:52;20.42;26.98
63976;DHT22;50167;47.958;21.780;2023-03-01T10:30:58;20.34;27.08
63976;DHT22;50167;47.958;21.780;2023-03-01T10:33:32;20.79;26.87
63976;DHT22;50167;47.958;21.780;2023-03-01T10:35:58;20.99;26.61
63976;DHT22;50167;47.958;21.780;2023-03-01T10:38:25;21.06;25.15
63976;DHT22;50167;47.958;21.780;2023-03-01T10:41:06;21.10;25.48
63976;DHT22;50167;47.958;21.780;2023-03-01T10:43:56;21.25;25.15
63976;DHT22;50167;47.958;21.780;2023-03-01T10:46:37;21.80;25.13
63976;DHT22;50167;47.958;21.780;2023-03-01T10:49:21;22.03;24.36
63976;DHT22;50167;47.958;21.780;2023-03-01T10:51:51;21.76;24.35
63976;DHT22;50167;47.958;21.780;2023-03-01T10:54:31;21.41;24.54
63976;DHT22;50167;47.958;21.780;2023-03-01T10:57:01;21.17;25.21
63976;DHT22;50167;47.958;21.780;2023-03-01T10:59:36;21.48;25.25
63976;DHT22;50167;47.958;21.780;2023-03-01T11:08:48;22.76;23.72
63976;DHT22;50167;47.958;21.780;2023-03-01T11:11:22;23.18;22.80
63976;DHT22;50167;47.958;21.780;2023-03-01T11:13:59;23.57;22.45
63976;DHT22;50167;47.958;21.780;2023-03-01T11:16:33;23.56;22.53
63976;DHT22;50167;47.958;21.780;2023-03-01T11:21:55;23.43;22.71
63976;DHT22;50167;47.958;21.780;2023-03-01T11:24:19;23.54;23.30
63976;DHT22;50167;47.958;21.780;2023-03-01T11:26:53;23.16;23.25
63976;DHT22;50167;47.958;21.780;2023-03-01T11:29:39;22.82;23.69
63976;DHT22;50167;47.958;21.780;2023-03-01T11:32:10;22.82;22.42
63976;DHT22;50167;47.958;21.780;2023-03-01T11:34:46;23.15;22.60
63976;DHT22;50167;47.958;21.780;2023-03-01T11:37:44;23.64;23.38
63976;DHT22;50167;47.958;21.780;2023-03-01T11:43:09;22.96;22.60
63976;DHT22;50167;47.958;21.780;2023-03-01T11:45:58;22.40;22.95
63976;DHT22;50167;47.958;21.780;2023-03-01T11:48:32;22.19;23.96
63976;DHT22;50167;47.958;21.780;2023-03-01T11:51:02;21.92;23.47
63976;DHT22;50167;47.958;21.780;2023-03-01T11:56:43;22.55;23.55
63976;DHT22;50167;47.958;21.780;2023-03-01T12:18:44;24.70;22.01
63976;DHT22;50167;47.958;21.780;2023-03-01T12:21:19;25.14;20.50
63976;DHT22;50167;47.958;21.780;2023-03-01T12:24:01;25.04;20.79
63976;DHT22;50167;47.958;21.780;2023-03-01T12:29:38;25.08;22.16
63976;DHT22;50167;47.958;21.780;2023-03-01T12:32:42;25.11;20.51
63976;DHT22;50167;47.958;21.780;2023-03-01T12:43:58;24.25;20.87
63976;DHT22;50167;47.958;21.780;2023-03-01T12:49:13;23.47;21.52
63976;DHT22;50167;47.958;21.780;2023-03-01T12:51:46;22.71;22.00
63976;DHT22;50167;47.958;21.780;2023-03-01T12:54:20;22.45;22.49
63976;DHT22;50167;47.958;21.780;2023-03-01T12:56:46;22.37;23.35
63976;DHT22;50167;47.958;21.780;2023-03-01T13:02:33;23.19;22.65
63976;DHT22;50167;47.958;21.780;2023-03-01T13:05:18;23.33;22.11
63976;DHT22;50167;47.958;21.780;2023-03-01T13:13:18;24.61;21.75
63976;DHT22;50167;47.958;21.780;2023-03-01T13:15:42;24.87;22.08
63976;DHT22;50167;47.958;21.780;2023-03-01T13:23:28;25.87;20.16
63976;DHT22;50167;47.958;21.780;2023-03-01T13:26:16;26.20;21.19
63976;DHT22;50167;47.958;21.780;2023-03-01T13:28:55;26.31;20.54
63976;DHT22;50167;47.958;21.780;2023-03-01T13:34:02;25.73;20.03
63976;DHT22;50167;47.958;21.780;2023-03-01T13:36:46;25.50;21.13
63976;DHT22;50167;47.958;21.780;2023-03-01T13:39:38;25.42;20.31
63976;DHT22;50167;47.958;21.780;2023-03-01T13:42:03;25.73;20.44
63976;DHT22;50167;47.958;21.780;2023-03-01T13:44:33;25.70;19.63
63976;DHT22;50167;47.958;21.780;2023-03-01T13:49:59;24.74;20.36
63976;DHT22;50167;47.958;21.780;2023-03-01T13:52:52;24.53;20.33
63976;DHT22;50167;47.958;21.780;2023-03-01T13:58:00;22.57;22.52
63976;DHT22;50167;47.958;21.780;2023-03-01T14:00:36;21.37;23.43
63976;DHT22;50167;47.958;21.780;2023-03-01T14:03:16;20.25;24.77
63976;DHT22;50167;47.958;21.780;2023-03-01T14:06:20;19.22;25.42
63976;DHT22;50167;47.958;21.780;2023-03-01T14:08:48;18.12;26.57
63976;DHT22;50167;47.958;21.780;2023-03-01T14:14:12;15.95;29.11
63976;DHT22;50167;47.958;21.780;2023-03-01T14:19:48;14.61;32.31
63976;DHT22;50167;47.958;21.780;2023-03-01T14:22:31;14.33;33.42
63976;DHT22;50167;47.958;21.780;2023-03-01T14:25:06;13.91;33.97
63976;DHT22;50167;47.958;21.780;2023-03-01T14:27:38;13.72;34.45
63976;DHT22;50167;47.958;21.780;2023-03-01T14:30:25;13.62;35.33
63976;DHT22;50167;47.958;21.780;2023-03-01T14:32:59;13.55;34.01
63976;DHT22;50167;47.958;21.780;2023-03-01T14:35:30;13.55;35.77
63976;DHT22;50167;47.958;21.780;2023-03-01T14:37:58;13.57;35.52
63976;DHT22;50167;47.958;21.780;2023-03-01T14:43:01;13.58;35.93
63976;DHT22;50167;47.958;21.780;2023-03-01T14:45:29;13.43;36.28
63976;DHT22;50167;47.958;21.780;2023-03-01T14:48:03;13.23;36.58
63976;DHT22;50167;47.958;21.780;2023-03-01T14:50:33;13.13;37.41
63976;DHT22;50167;47.958;21.780;2023-03-01T14:53:03;13.00;37.73
63976;DHT22;50167;47.958;21.780;2023-03-01T14:55:42;12.95;37.92
63976;DHT22;50167;47.958;21.780;2023-03-01T14:58:14;12.95;38.04
63976;DHT22;50167;47.958;21.780;2023-03-01T15:00:48;12.95;38.33
63976;DHT22;50167;47.958;21.780;2023-03-01T15:03:34;13.12;38.68
63976;DHT22;50167;47.958;21.780;2023-03-01T15:06:04;13.50;38.63
63976;DHT22;50167;47.958;21.780;2023-03-01T15:08:31;14.19;37.56
63976;DHT22;50167;47.958;21.780;2023-03-01T15:13:41;15.73;35.41
63976;DHT22;50167;47.958;21.780;2023-03-01T15:16:22;16.39;34.42
63976;DHT22;50167;47.958;21.780;2023-03-01T15:18:54;16.94;33.32
63976;DHT22;50167;47.958;21.780;2023-03-01T15:21:29;17.16;31.83
63976;DHT22;50167;47.958;21.780;2023-03-01T15:24:19;17.02;31.34
63976;DHT22;50167;47.958;21.780;2023-03-01T15:27:00;16.30;31.71
63976;DHT22;50167;47.958;21.780;2023-03-01T15:29:32;15.37;33.07
63976;DHT22;50167;47.958;21.780;2023-03-01T15:32:27;14.67;33.97
63976;DHT22;50167;47.958;21.780;2023-03-01T15:34:39;14.19;34.74
63976;DHT22;50167;47.958;21.780;2023-03-01T15:39:55;13.71;35.52
63976;DHT22;50167;47.958;21.780;2023-03-01T15:45:22;12.54;36.86
63976;DHT22;50167;47.958;21.780;2023-03-01T15:47:58;11.99;37.45
63976;DHT22;50167;47.958;21.780;2023-03-01T15:50:35;11.51;38.24
63976;DHT22;50167;47.958;21.780;2023-03-01T15:53:08;11.11;38.81
63976;DHT22;50167;47.958;21.780;2023-03-01T15:55:34;10.78;39.68
63976;DHT22;50167;47.958;21.780;2023-03-01T15:58:12;10.49;39.96
63976;DHT22;50167;47.958;21.780;2023-03-01T16:00:37;10.17;40.75
63976;DHT22;50167;47.958;21.780;2023-03-01T16:03:05;9.97;41.74
63976;DHT22;50167;47.958;21.780;2023-03-01T16:05:34;9.74;41.79
63976;DHT22;50167;47.958;21.780;2023-03-01T16:08:03;9.50;42.38
63976;DHT22;50167;47.958;21.780;2023-03-01T16:10:30;9.32;42.33
63976;DHT22;50167;47.958;21.780;2023-03-01T16:12:57;9.17;43.00
63976;DHT22;50167;47.958;21.780;2023-03-01T16:15:29;9.00;43.46
63976;DHT22;50167;47.958;21.780;2023-03-01T16:17:56;8.89;43.76
63976;DHT22;50167;47.958;21.780;2023-03-01T16:20:25;8.73;44.05
63976;DHT22;50167;47.958;21.780;2023-03-01T16:22:51;8.59;44.41
63976;DHT22;50167;47.958;21.780;2023-03-01T16:25:20;8.46;44.95
63976;DHT22;50167;47.958;21.780;2023-03-01T16:27:50;8.31;44.58
63976;DHT22;50167;47.958;21.780;2023-03-01T16:30:20;8.21;44.99
63976;DHT22;50167;47.958;21.780;2023-03-01T16:32:47;8.10;45.40
63976;DHT22;50167;47.958;21.780;2023-03-01T16:35:16;8.01;45.19
63976;DHT22;50167;47.958;21.780;2023-03-01T16:37:44;7.90;45.19
63976;DHT22;50167;47.958;21.780;2023-03-01T16:40:20;7.79;45.46
63976;DHT22;50167;47.958;21.780;2023-03-01T16:42:49;7.69;45.83
63976;DHT22;50167;47.958;21.780;2023-03-01T16:45:16;7.60;45.67
63976;DHT22;50167;47.958;21.780;2023-03-01T16:47:43;7.52;46.42
63976;DHT22;50167;47.958;21.780;2023-03-01T16:50:10;7.43;46.21
63976;DHT22;50167;47.958;21.780;2023-03-01T16:52:37;7.36;45.96
63976;DHT22;50167;47.958;21.780;2023-03-01T16:55:06;7.29;45.96
63976;DHT22;50167;47.958;21.780;2023-03-01T16:57:37;7.22;45.66
63976;DHT22;50167;47.958;21.780;2023-03-01T17:00:06;7.21;44.67
63976;DHT22;50167;47.958;21.780;2023-03-01T17:02:35;7.14;44.26
63976;DHT22;50167;47.958;21.780;2023-03-01T17:05:02;7.10;43.87
63976;DHT22;50167;47.958;21.780;2023-03-01T17:07:30;7.06;43.76
63976;DHT22;50167;47.958;21.780;2023-03-01T17:09:58;6.97;43.58
63976;DHT22;50167;47.958;21.780;2023-03-01T17:12:25;6.93;43.64
63976;DHT22;50167;47.958;21.780;2023-03-01T17:14:51;6.83;43.67
63976;DHT22;50167;47.958;21.780;2023-03-01T17:17:18;6.77;43.68
63976;DHT22;50167;47.958;21.780;2023-03-01T17:19:44;6.67;43.60
63976;DHT22;50167;47.958;21.780;2023-03-01T17:22:12;6.61;43.57
63976;DHT22;50167;47.958;21.780;2023-03-01T17:24:43;6.50;43.61
63976;DHT22;50167;47.958;21.780;2023-03-01T17:27:11;6.45;43.56
63976;DHT22;50167;47.958;21.780;2023-03-01T17:29:39;6.38;43.49
63976;DHT22;50167;47.958;21.780;2023-03-01T17:32:06;6.35;43.24
63976;DHT22;50167;47.958;21.780;2023-03-01T17:34:33;6.26;42.94
63976;DHT22;50167;47.958;21.780;2023-03-01T17:36:59;6.22;42.63
63976;DHT22;50167;47.958;21.780;2023-03-01T17:39:27;6.19;42.43
63976;DHT22;50167;47.958;21.780;2023-03-01T17:41:56;6.15;41.56
63976;DHT22;50167;47.958;21.780;2023-03-01T17:44:23;6.11;41.10
63976;DHT22;50167;47.958;21.780;2023-03-01T17:46:49;6.11;41.32
63976;DHT22;50167;47.958;21.780;2023-03-01T17:49:16;6.02;41.32
63976;DHT22;50167;47.958;21.780;2023-03-01T17:51:43;6.00;41.02
63976;DHT22;50167;47.958;21.780;2023-03-01T17:54:10;5.91;41.04
63976;DHT22;50167;47.958;21.780;2023-03-01T17:56:36;5.87;41.07